createdAt,value
2018-09-13T00:00:37.540Z,7.8
2018-09-13T00:01:39.101Z,7.8
2018-09-13T00:02:40.668Z,7.8
2018-09-13T00:03:42.280Z,7.8
2018-09-13T00:04:43.876Z,7.8
2018-09-13T00:05:45.484Z,7.8
2018-09-13T00:06:47.066Z,7.8
2018-09-13T00:07:48.653Z,7.8
2018-09-13T00:08:50.207Z,7.8
2018-09-13T00:09:51.784Z,7.8
2018-09-13T00:10:53.336Z,7.8
2018-09-13T00:11:54.902Z,7.8
2018-09-13T00:12:56.478Z,7.9
2018-09-13T00:13:58.039Z,7.9
2018-09-13T00:14:59.592Z,7.8
2018-09-13T00:16:01.160Z,7.9
2018-09-13T00:17:02.727Z,7.8
2018-09-13T00:18:04.288Z,7.8
2018-09-13T00:19:05.850Z,7.8
2018-09-13T00:20:07.424Z,7.9
2018-09-13T00:21:08.976Z,7.8
2018-09-13T00:22:10.398Z,7.8
2018-09-13T00:23:11.974Z,7.8
2018-09-13T00:24:13.386Z,7.8
2018-09-13T00:25:14.948Z,7.8
2018-09-13T00:26:16.524Z,7.8
2018-09-13T00:27:18.107Z,7.8
2018-09-13T00:28:19.670Z,7.8
2018-09-13T00:29:21.241Z,7.8
2018-09-13T00:30:23.026Z,7.8
2018-09-13T00:31:24.587Z,7.8
2018-09-13T00:32:26.166Z,7.8
2018-09-13T00:33:27.730Z,7.8
2018-09-13T00:34:29.324Z,7.8
2018-09-13T00:35:30.885Z,7.8
2018-09-13T00:36:32.469Z,7.8
2018-09-13T00:37:34.026Z,7.8
2018-09-13T00:38:35.612Z,7.8
2018-09-13T00:39:37.174Z,7.8
2018-09-13T00:40:38.755Z,7.8
2018-09-13T00:41:40.306Z,7.8
2018-09-13T00:42:41.871Z,7.8
2018-09-13T00:43:43.276Z,7.8
2018-09-13T00:44:44.846Z,7.8
2018-09-13T00:45:46.410Z,7.8
2018-09-13T00:46:47.959Z,7.8
2018-09-13T00:47:49.527Z,7.8
2018-09-13T00:48:51.110Z,7.8
2018-09-13T00:49:52.893Z,7.8
2018-09-13T00:50:54.447Z,7.8
2018-09-13T00:51:56.029Z,7.8
2018-09-13T00:52:57.599Z,7.8
2018-09-13T00:53:59.145Z,7.8
2018-09-13T00:55:00.709Z,7.8
2018-09-13T00:56:02.280Z,7.8
2018-09-13T00:57:03.856Z,7.8
2018-09-13T00:58:05.446Z,7.8
2018-09-13T00:59:07.521Z,7.8
2018-09-13T01:00:09.109Z,7.8
2018-09-13T01:01:10.497Z,7.8
2018-09-13T01:02:12.076Z,7.8
2018-09-13T01:03:13.641Z,7.8
2018-09-13T01:04:15.219Z,7.8
2018-09-13T01:05:16.835Z,7.8
2018-09-13T01:06:18.232Z,7.8
2018-09-13T01:07:19.824Z,7.8
2018-09-13T01:08:21.386Z,7.8
2018-09-13T01:09:22.956Z,7.8
2018-09-13T01:10:24.548Z,7.8
2018-09-13T01:11:25.950Z,7.8
2018-09-13T01:12:27.536Z,7.8
2018-09-13T01:13:29.107Z,7.8
2018-09-13T01:14:30.699Z,7.8
2018-09-13T01:15:32.299Z,7.8
2018-09-13T01:16:33.851Z,7.8
2018-09-13T01:17:35.441Z,7.8
2018-09-13T01:18:37.012Z,7.8
2018-09-13T01:19:38.589Z,7.8
2018-09-13T01:20:40.151Z,7.8
2018-09-13T01:21:41.729Z,7.8
2018-09-13T01:22:43.298Z,7.8
2018-09-13T01:23:44.888Z,7.7
2018-09-13T01:24:46.457Z,7.7
2018-09-13T01:25:47.856Z,7.6
2018-09-13T01:26:49.407Z,7.5
2018-09-13T01:27:51.001Z,7.4
2018-09-13T01:28:52.560Z,7.3
2018-09-13T01:29:54.145Z,7.2
2018-09-13T01:30:55.716Z,7.2
2018-09-13T01:31:57.118Z,7.2
2018-09-13T01:32:58.668Z,7.2
2018-09-13T01:34:00.234Z,7.2
2018-09-13T01:35:01.800Z,7.2
2018-09-13T01:36:03.391Z,7.2
2018-09-13T01:37:04.955Z,7.2
2018-09-13T01:38:06.366Z,7.2
2018-09-13T01:39:07.915Z,7.2
2018-09-13T01:40:09.477Z,7.2
2018-09-13T01:41:10.900Z,7.2
2018-09-13T01:42:12.461Z,7.2
2018-09-13T01:43:14.013Z,7.2
2018-09-13T01:44:15.555Z,7.2
2018-09-13T01:45:17.139Z,7.2
2018-09-13T01:46:18.699Z,7.2
2018-09-13T01:47:20.287Z,7.2
2018-09-13T01:48:21.857Z,7.2
2018-09-13T01:49:23.402Z,7.2
2018-09-13T01:50:24.955Z,7.2
2018-09-13T01:51:26.588Z,7.2
2018-09-13T01:52:28.167Z,7.2
2018-09-13T01:53:29.728Z,7.2
2018-09-13T01:54:31.298Z,7.2
2018-09-13T01:55:32.876Z,7.2
2018-09-13T01:56:34.456Z,7.2
2018-09-13T01:57:36.033Z,7.2
2018-09-13T01:58:37.609Z,7.2
2018-09-13T01:59:39.168Z,7.2
2018-09-13T02:00:40.725Z,7.2
2018-09-13T02:01:42.308Z,7.2
2018-09-13T02:02:43.868Z,7.2
2018-09-13T02:03:45.422Z,7.2
2018-09-13T02:04:46.997Z,7.2
2018-09-13T02:05:48.572Z,7.2
2018-09-13T02:06:50.149Z,7.2
2018-09-13T02:07:51.704Z,7.2
2018-09-13T02:08:53.269Z,7.2
2018-09-13T02:09:54.839Z,7.2
2018-09-13T02:10:56.266Z,7.2
2018-09-13T02:11:57.657Z,7.2
2018-09-13T02:12:59.229Z,7.2
2018-09-13T02:14:00.762Z,7.2
2018-09-13T02:15:02.328Z,7.2
2018-09-13T02:16:03.740Z,7.3
2018-09-13T02:17:05.307Z,7.3
2018-09-13T02:18:06.873Z,7.3
2018-09-13T02:19:08.424Z,7.3
2018-09-13T02:20:09.994Z,7.4
2018-09-13T02:21:11.545Z,7.4
2018-09-13T02:22:13.135Z,7.4
2018-09-13T02:23:14.683Z,7.5
2018-09-13T02:24:16.084Z,7.5
2018-09-13T02:25:17.507Z,7.6
2018-09-13T02:26:19.074Z,7.6
2018-09-13T02:27:20.656Z,7.6
2018-09-13T02:28:22.212Z,7.7
2018-09-13T02:29:23.779Z,7.7
2018-09-13T02:30:25.346Z,7.8
2018-09-13T02:31:26.898Z,7.8
2018-09-13T02:32:28.455Z,7.8
2018-09-13T02:33:30.015Z,7.8
2018-09-13T02:34:31.402Z,7.8
2018-09-13T02:35:32.957Z,7.9
2018-09-13T02:36:34.536Z,7.9
2018-09-13T02:37:36.129Z,7.9
2018-09-13T02:38:37.708Z,7.9
2018-09-13T02:39:39.271Z,7.9
2018-09-13T02:40:40.838Z,7.9
2018-09-13T02:41:42.229Z,7.9
2018-09-13T02:42:43.798Z,7.9
2018-09-13T02:43:45.385Z,7.9
2018-09-13T02:44:46.944Z,7.9
2018-09-13T02:45:48.513Z,7.9
2018-09-13T02:46:50.077Z,7.8
2018-09-13T02:47:51.637Z,7.9
2018-09-13T02:48:53.216Z,7.9
2018-09-13T02:49:54.766Z,7.9
2018-09-13T02:50:56.337Z,7.8
2018-09-13T02:51:57.905Z,7.8
2018-09-13T02:52:59.465Z,7.9
2018-09-13T02:54:00.892Z,7.9
2018-09-13T02:55:02.513Z,7.9
2018-09-13T02:56:04.075Z,7.9
2018-09-13T02:57:05.635Z,7.9
2018-09-13T02:58:07.225Z,7.9
2018-09-13T02:59:08.813Z,7.9
2018-09-13T03:00:10.232Z,7.9
2018-09-13T03:01:11.827Z,7.9
2018-09-13T03:02:13.405Z,7.9
2018-09-13T03:03:14.987Z,7.9
2018-09-13T03:04:16.392Z,7.9
2018-09-13T03:05:17.995Z,7.8
2018-09-13T03:06:19.566Z,7.8
2018-09-13T03:07:21.149Z,7.8
2018-09-13T03:08:23.522Z,7.8
2018-09-13T03:09:25.227Z,7.8
2018-09-13T03:10:26.828Z,7.8
2018-09-13T03:11:28.239Z,7.8
2018-09-13T03:12:29.829Z,7.8
2018-09-13T03:13:31.387Z,7.8
2018-09-13T03:14:32.938Z,7.8
2018-09-13T03:15:34.518Z,7.8
2018-09-13T03:16:36.081Z,7.8
2018-09-13T03:17:37.667Z,7.8
2018-09-13T03:18:39.239Z,7.8
2018-09-13T03:19:40.817Z,7.8
2018-09-13T03:20:42.397Z,7.8
2018-09-13T03:21:43.978Z,7.8
2018-09-13T03:22:45.547Z,7.8
2018-09-13T03:23:47.108Z,7.8
2018-09-13T03:24:48.678Z,7.8
2018-09-13T03:25:50.068Z,7.7
2018-09-13T03:26:51.678Z,7.7
2018-09-13T03:27:53.322Z,7.6
2018-09-13T03:28:54.886Z,7.6
2018-09-13T03:29:56.506Z,7.5
2018-09-13T03:30:57.939Z,7.4
2018-09-13T03:31:59.543Z,7.3
2018-09-13T03:33:00.977Z,7.2
2018-09-13T03:34:02.567Z,7.2
2018-09-13T03:35:03.967Z,7.2
2018-09-13T03:36:05.556Z,7.2
2018-09-13T03:37:07.112Z,7.2
2018-09-13T03:38:08.347Z,7.2
2018-09-13T03:39:09.938Z,7.2
2018-09-13T03:40:11.504Z,7.2
2018-09-13T03:41:13.088Z,7.2
2018-09-13T03:42:14.675Z,7.2
2018-09-13T03:43:16.279Z,7.2
2018-09-13T03:44:17.880Z,7.2
2018-09-13T03:45:19.467Z,7.2
2018-09-13T03:46:21.036Z,7.2
2018-09-13T03:47:22.612Z,7.2
2018-09-13T03:48:24.222Z,7.2
2018-09-13T03:49:25.796Z,7.2
2018-09-13T03:50:27.348Z,7.2
2018-09-13T03:51:28.963Z,7.2
2018-09-13T03:52:30.527Z,7.2
2018-09-13T03:53:32.085Z,7.2
2018-09-13T03:54:33.673Z,7.2
2018-09-13T03:55:35.248Z,7.2
2018-09-13T03:56:36.833Z,7.2
2018-09-13T03:57:38.390Z,7.2
2018-09-13T03:58:39.978Z,7.2
2018-09-13T03:59:41.562Z,7.2
2018-09-13T04:00:43.140Z,7.2
2018-09-13T04:01:44.703Z,7.2
2018-09-13T04:02:46.254Z,7.2
2018-09-13T04:03:47.844Z,7.2
2018-09-13T04:04:49.436Z,7.2
2018-09-13T04:05:51.018Z,7.2
2018-09-13T04:06:52.600Z,7.2
2018-09-13T04:07:54.180Z,7.2
2018-09-13T04:08:55.740Z,7.2
2018-09-13T04:09:57.309Z,7.3
2018-09-13T04:10:58.878Z,7.3
2018-09-13T04:12:00.481Z,7.3
2018-09-13T04:13:02.090Z,7.3
2018-09-13T04:14:03.750Z,7.3
2018-09-13T04:15:05.332Z,7.3
2018-09-13T04:16:06.953Z,7.4
2018-09-13T04:17:08.538Z,7.4
2018-09-13T04:18:10.117Z,7.4
2018-09-13T04:19:11.540Z,7.4
2018-09-13T04:20:13.090Z,7.5
2018-09-13T04:21:14.668Z,7.5
2018-09-13T04:22:16.239Z,7.5
2018-09-13T04:23:18.159Z,7.6
2018-09-13T04:24:19.717Z,7.6
2018-09-13T04:25:21.269Z,7.7
2018-09-13T04:26:22.838Z,7.7
2018-09-13T04:27:24.402Z,7.7
2018-09-13T04:28:25.957Z,7.8
2018-09-13T04:29:27.507Z,7.8
2018-09-13T04:30:29.101Z,7.8
2018-09-13T04:31:30.679Z,7.8
2018-09-13T04:32:32.276Z,7.8
2018-09-13T04:33:33.858Z,7.8
2018-09-13T04:34:35.417Z,7.8
2018-09-13T04:35:37.944Z,7.8
2018-09-13T04:36:39.538Z,7.8
2018-09-13T04:37:40.941Z,7.8
2018-09-13T04:38:42.516Z,7.8
2018-09-13T04:39:43.928Z,7.9
2018-09-13T04:40:45.502Z,7.9
2018-09-13T04:41:47.060Z,7.9
2018-09-13T04:42:48.696Z,7.9
2018-09-13T04:43:50.262Z,7.9
2018-09-13T04:44:51.838Z,7.9
2018-09-13T04:45:53.407Z,7.9
2018-09-13T04:46:55.017Z,7.8
2018-09-13T04:47:56.588Z,7.8
2018-09-13T04:48:58.331Z,7.8
2018-09-13T04:49:59.754Z,7.9
2018-09-13T04:51:01.334Z,7.9
2018-09-13T04:52:02.903Z,7.9
2018-09-13T04:53:04.297Z,7.9
2018-09-13T04:54:05.705Z,7.9
2018-09-13T04:55:07.284Z,7.9
2018-09-13T04:56:08.828Z,7.9
2018-09-13T04:57:10.407Z,7.9
2018-09-13T04:58:11.990Z,7.9
2018-09-13T04:59:13.559Z,7.9
2018-09-13T05:00:15.650Z,7.9
2018-09-13T05:01:17.270Z,7.8
2018-09-13T05:02:18.828Z,7.8
2018-09-13T05:03:20.406Z,7.9
2018-09-13T05:04:21.983Z,7.8
2018-09-13T05:05:23.538Z,7.9
2018-09-13T05:06:25.245Z,7.9
2018-09-13T05:07:26.812Z,7.8
2018-09-13T05:08:28.380Z,7.9
2018-09-13T05:09:29.949Z,7.8
2018-09-13T05:10:31.519Z,7.9
2018-09-13T05:11:33.093Z,7.9
2018-09-13T05:12:34.683Z,7.9
2018-09-13T05:13:36.267Z,7.8
2018-09-13T05:14:37.837Z,7.9
2018-09-13T05:15:39.408Z,7.9
2018-09-13T05:16:40.981Z,7.9
2018-09-13T05:17:42.578Z,7.9
2018-09-13T05:18:43.982Z,7.9
2018-09-13T05:19:45.399Z,7.8
2018-09-13T05:20:47.100Z,7.8
2018-09-13T05:21:48.523Z,7.9
2018-09-13T05:22:50.094Z,7.9
2018-09-13T05:23:51.656Z,7.9
2018-09-13T05:24:53.227Z,7.9
2018-09-13T05:25:54.803Z,7.9
2018-09-13T05:26:56.220Z,7.9
2018-09-13T05:27:57.781Z,7.9
2018-09-13T05:28:59.338Z,7.9
2018-09-13T05:30:00.927Z,7.9
2018-09-13T05:31:02.477Z,7.9
2018-09-13T05:32:04.047Z,7.8
2018-09-13T05:33:05.607Z,7.8
2018-09-13T05:34:07.029Z,7.8
2018-09-13T05:35:08.623Z,7.8
2018-09-13T05:36:10.190Z,7.7
2018-09-13T05:37:11.772Z,7.7
2018-09-13T05:38:13.349Z,7.6
2018-09-13T05:39:14.935Z,7.5
2018-09-13T05:40:16.515Z,7.4
2018-09-13T05:41:17.744Z,7.3
2018-09-13T05:42:19.322Z,7.2
2018-09-13T05:43:20.731Z,7.2
2018-09-13T05:44:22.331Z,7.2
2018-09-13T05:45:23.933Z,7.2
2018-09-13T05:46:25.535Z,7.2
2018-09-13T05:47:27.114Z,7.2
2018-09-13T05:48:28.701Z,7.2
2018-09-13T05:49:30.284Z,7.2
2018-09-13T05:50:31.917Z,7.2
2018-09-13T05:51:33.488Z,7.2
2018-09-13T05:52:35.055Z,7.2
2018-09-13T05:53:36.649Z,7.2
2018-09-13T05:54:38.236Z,7.2
2018-09-13T05:55:39.807Z,7.2
2018-09-13T05:56:41.379Z,7.2
2018-09-13T05:57:42.958Z,7.2
2018-09-13T05:58:44.514Z,7.2
2018-09-13T05:59:45.764Z,7.2
2018-09-13T06:00:47.169Z,7.2
2018-09-13T06:01:48.745Z,7.2
2018-09-13T06:02:50.306Z,7.2
2018-09-13T06:03:51.867Z,7.2
2018-09-13T06:04:53.442Z,7.2
2018-09-13T06:05:54.711Z,7.2
2018-09-13T06:06:56.120Z,7.2
2018-09-13T06:07:58.134Z,7.2
2018-09-13T06:08:59.888Z,7.2
2018-09-13T06:10:01.616Z,7.2
2018-09-13T06:11:03.246Z,7.2
2018-09-13T06:12:04.829Z,7.2
2018-09-13T06:13:06.390Z,7.2
2018-09-13T06:14:08.004Z,7.2
2018-09-13T06:15:09.556Z,7.2
2018-09-13T06:16:10.981Z,7.2
2018-09-13T06:17:12.547Z,7.3
2018-09-13T06:18:14.133Z,7.3
2018-09-13T06:19:15.732Z,7.3
2018-09-13T06:20:17.297Z,7.3
2018-09-13T06:21:18.878Z,7.3
2018-09-13T06:22:20.675Z,7.3
2018-09-13T06:23:22.276Z,7.3
2018-09-13T06:24:23.842Z,7.3
2018-09-13T06:25:25.456Z,7.4
2018-09-13T06:26:27.032Z,7.4
2018-09-13T06:27:28.629Z,7.4
2018-09-13T06:28:30.205Z,7.4
2018-09-13T06:29:32.128Z,7.4
2018-09-13T06:30:33.757Z,7.4
2018-09-13T06:31:35.327Z,7.4
2018-09-13T06:32:36.925Z,7.5
2018-09-13T06:33:38.499Z,7.5
2018-09-13T06:34:40.082Z,7.5
2018-09-13T06:35:41.651Z,7.5
2018-09-13T06:36:43.210Z,7.5
2018-09-13T06:37:44.607Z,7.6
2018-09-13T06:38:46.195Z,7.6
2018-09-13T06:39:47.957Z,7.6
2018-09-13T06:40:49.564Z,7.6
2018-09-13T06:41:51.132Z,7.6
2018-09-13T06:42:52.565Z,7.6
2018-09-13T06:43:54.161Z,7.6
2018-09-13T06:44:55.735Z,7.7
2018-09-13T06:45:57.330Z,7.7
2018-09-13T06:46:58.907Z,7.7
2018-09-13T06:48:00.520Z,7.8
2018-09-13T06:49:02.282Z,7.8
2018-09-13T06:50:03.970Z,7.8
2018-09-13T06:51:05.668Z,7.8
2018-09-13T06:52:07.275Z,7.8
2018-09-13T06:53:08.860Z,7.8
2018-09-13T06:54:10.889Z,7.8
2018-09-13T06:55:12.462Z,7.8
2018-09-13T06:56:14.018Z,7.8
2018-09-13T06:57:15.578Z,7.8
2018-09-13T06:58:17.163Z,7.8
2018-09-13T06:59:18.732Z,7.8
2018-09-13T07:00:20.302Z,7.8
2018-09-13T07:01:21.870Z,7.8
2018-09-13T07:02:23.675Z,7.8
2018-09-13T07:03:25.369Z,7.8
2018-09-13T07:04:26.933Z,7.9
2018-09-13T07:05:28.502Z,7.9
2018-09-13T07:06:30.085Z,7.9
2018-09-13T07:07:31.661Z,7.9
2018-09-13T07:08:33.251Z,7.8
2018-09-13T07:09:34.839Z,7.9
2018-09-13T07:10:36.411Z,7.9
2018-09-13T07:11:37.986Z,7.8
2018-09-13T07:12:39.585Z,7.8
2018-09-13T07:13:41.184Z,7.8
2018-09-13T07:14:42.804Z,7.8
2018-09-13T07:15:44.364Z,7.8
2018-09-13T07:16:45.933Z,7.8
2018-09-13T07:17:47.516Z,7.8
2018-09-13T07:18:49.079Z,7.8
2018-09-13T07:19:50.644Z,7.8
2018-09-13T07:20:52.189Z,7.8
2018-09-13T07:21:53.776Z,7.8
2018-09-13T07:22:55.349Z,7.8
2018-09-13T07:23:56.932Z,7.8
2018-09-13T07:24:58.202Z,7.7
2018-09-13T07:25:59.820Z,7.7
2018-09-13T07:27:01.414Z,7.6
2018-09-13T07:28:03.007Z,7.5
2018-09-13T07:29:04.565Z,7.5
2018-09-13T07:30:06.147Z,7.3
2018-09-13T07:31:07.571Z,7.2
2018-09-13T07:32:09.139Z,7.2
2018-09-13T07:33:10.561Z,7.2
2018-09-13T07:34:12.144Z,7.2
2018-09-13T07:35:13.701Z,7.2
2018-09-13T07:36:15.268Z,7.2
2018-09-13T07:37:16.666Z,7.2
2018-09-13T07:38:18.240Z,7.2
2018-09-13T07:39:19.824Z,7.2
2018-09-13T07:40:21.433Z,7.2
2018-09-13T07:41:23.048Z,7.2
2018-09-13T07:42:25.103Z,7.2
2018-09-13T07:43:26.787Z,7.2
2018-09-13T07:44:28.466Z,7.2
2018-09-13T07:45:30.059Z,7.2
2018-09-13T07:46:31.624Z,7.2
2018-09-13T07:47:33.184Z,7.2
2018-09-13T07:48:34.755Z,7.2
2018-09-13T07:49:37.093Z,7.2
2018-09-13T07:50:38.756Z,7.2
2018-09-13T07:51:40.333Z,7.2
2018-09-13T07:52:41.937Z,7.2
2018-09-13T07:53:43.499Z,7.2
2018-09-13T07:54:45.056Z,7.2
2018-09-13T07:55:47.063Z,7.2
2018-09-13T07:56:48.478Z,7.2
2018-09-13T07:57:49.881Z,7.2
2018-09-13T07:58:51.438Z,7.2
2018-09-13T07:59:53.031Z,7.2
2018-09-13T08:00:54.619Z,7.2
2018-09-13T08:01:56.254Z,7.2
2018-09-13T08:02:57.815Z,7.2
2018-09-13T08:03:59.417Z,7.2
2018-09-13T08:05:01.470Z,7.3
2018-09-13T08:06:03.104Z,7.3
2018-09-13T08:07:04.669Z,7.3
2018-09-13T08:08:06.245Z,7.3
2018-09-13T08:09:07.684Z,7.3
2018-09-13T08:10:09.095Z,7.3
2018-09-13T08:11:10.697Z,7.4
2018-09-13T08:12:13.585Z,7.4
2018-09-13T08:13:15.186Z,7.4
2018-09-13T08:14:16.761Z,7.5
2018-09-13T08:15:18.346Z,7.5
2018-09-13T08:16:19.821Z,7.5
2018-09-13T08:17:21.402Z,7.6
2018-09-13T08:18:22.807Z,7.6
2018-09-13T08:19:24.378Z,7.6
2018-09-13T08:20:25.939Z,7.6
2018-09-13T08:21:27.385Z,7.7
2018-09-13T08:22:28.996Z,7.7
2018-09-13T08:23:30.556Z,7.7
2018-09-13T08:24:32.155Z,7.7
2018-09-13T08:25:33.717Z,7.8
2018-09-13T08:26:35.317Z,7.8
2018-09-13T08:27:36.878Z,7.8
2018-09-13T08:28:38.477Z,7.8
2018-09-13T08:29:40.059Z,7.8
2018-09-13T08:30:41.492Z,7.8
2018-09-13T08:31:43.046Z,7.8
2018-09-13T08:32:44.674Z,7.8
2018-09-13T08:33:46.233Z,7.8
2018-09-13T08:34:48.683Z,7.8
2018-09-13T08:35:50.160Z,7.8
2018-09-13T08:36:51.973Z,7.8
2018-09-13T08:37:53.567Z,7.8
2018-09-13T08:38:55.140Z,7.8
2018-09-13T08:39:57.624Z,7.8
2018-09-13T08:40:59.365Z,7.8
2018-09-13T08:42:00.937Z,7.8
2018-09-13T08:43:03.018Z,7.9
2018-09-13T08:44:04.636Z,7.9
2018-09-13T08:45:06.242Z,7.9
2018-09-13T08:46:07.812Z,7.9
2018-09-13T08:47:09.229Z,7.9
2018-09-13T08:48:10.817Z,7.8
2018-09-13T08:49:12.381Z,7.8
2018-09-13T08:50:13.934Z,7.8
2018-09-13T08:51:15.532Z,7.8
2018-09-13T08:52:17.119Z,7.8
2018-09-13T08:53:18.688Z,7.8
2018-09-13T08:54:20.261Z,7.8
2018-09-13T08:55:21.840Z,7.8
2018-09-13T08:56:23.398Z,7.8
2018-09-13T08:57:24.973Z,7.8
2018-09-13T08:58:26.549Z,7.8
2018-09-13T08:59:28.130Z,7.8
2018-09-13T09:00:29.714Z,7.8
2018-09-13T09:01:31.320Z,7.8
2018-09-13T09:02:32.753Z,7.8
2018-09-13T09:03:34.313Z,7.8
2018-09-13T09:04:35.883Z,7.8
2018-09-13T09:05:37.506Z,7.8
2018-09-13T09:06:39.191Z,7.8
2018-09-13T09:07:40.754Z,7.8
2018-09-13T09:08:42.352Z,7.8
2018-09-13T09:09:43.916Z,7.8
2018-09-13T09:10:45.481Z,7.8
2018-09-13T09:11:47.235Z,7.8
2018-09-13T09:12:48.804Z,7.8
2018-09-13T09:13:50.381Z,7.8
2018-09-13T09:14:51.945Z,7.7
2018-09-13T09:15:53.507Z,7.7
2018-09-13T09:16:55.142Z,7.6
2018-09-13T09:17:56.722Z,7.5
2018-09-13T09:18:58.316Z,7.5
2018-09-13T09:19:59.875Z,7.4
2018-09-13T09:21:01.431Z,7.3
2018-09-13T09:22:02.982Z,7.2
2018-09-13T09:23:04.574Z,7.2
2018-09-13T09:24:06.301Z,7.2
2018-09-13T09:25:07.881Z,7.2
2018-09-13T09:26:09.433Z,7.2
2018-09-13T09:27:10.998Z,7.2
2018-09-13T09:28:12.544Z,7.2
2018-09-13T09:29:14.406Z,7.2
2018-09-13T09:30:16.043Z,7.2
2018-09-13T09:31:17.613Z,7.2
2018-09-13T09:32:19.015Z,7.2
2018-09-13T09:33:20.586Z,7.2
2018-09-13T09:34:22.162Z,7.2
2018-09-13T09:35:23.754Z,7.2
2018-09-13T09:36:25.326Z,7.2
2018-09-13T09:37:26.738Z,7.2
2018-09-13T09:38:28.306Z,7.2
2018-09-13T09:39:29.878Z,7.2
2018-09-13T09:40:31.850Z,7.2
2018-09-13T09:41:33.489Z,7.2
2018-09-13T09:42:35.236Z,7.2
2018-09-13T09:43:36.814Z,7.2
2018-09-13T09:44:38.410Z,7.2
2018-09-13T09:45:39.996Z,7.2
2018-09-13T09:46:41.569Z,7.2
2018-09-13T09:47:43.129Z,7.2
2018-09-13T09:48:44.936Z,7.2
2018-09-13T09:49:46.536Z,7.3
2018-09-13T09:50:47.984Z,7.3
2018-09-13T09:51:49.627Z,7.3
2018-09-13T09:52:51.202Z,7.3
2018-09-13T09:53:52.811Z,7.3
2018-09-13T09:54:54.226Z,7.3
2018-09-13T09:55:55.885Z,7.3
2018-09-13T09:56:57.468Z,7.4
2018-09-13T09:57:59.567Z,7.4
2018-09-13T09:59:01.248Z,7.4
2018-09-13T10:00:02.867Z,7.5
2018-09-13T10:01:04.448Z,7.5
2018-09-13T10:02:06.031Z,7.5
2018-09-13T10:03:07.856Z,7.6
2018-09-13T10:04:09.497Z,7.7
2018-09-13T10:05:11.088Z,7.7
2018-09-13T10:06:12.663Z,7.8
2018-09-13T10:07:14.246Z,7.8
2018-09-13T10:08:15.816Z,7.8
2018-09-13T10:09:17.388Z,7.8
2018-09-13T10:10:18.987Z,7.8
2018-09-13T10:11:20.579Z,7.8
2018-09-13T10:12:22.037Z,7.8
2018-09-13T10:13:23.444Z,7.8
2018-09-13T10:14:25.005Z,7.8
2018-09-13T10:15:26.597Z,7.9
2018-09-13T10:16:28.017Z,7.9
2018-09-13T10:17:29.583Z,7.9
2018-09-13T10:18:31.191Z,7.9
2018-09-13T10:19:32.768Z,7.9
2018-09-13T10:20:34.356Z,7.9
2018-09-13T10:21:35.922Z,7.9
2018-09-13T10:22:37.509Z,7.9
2018-09-13T10:23:39.634Z,7.9
2018-09-13T10:24:41.258Z,7.9
2018-09-13T10:25:42.817Z,7.9
2018-09-13T10:26:44.389Z,7.9
2018-09-13T10:27:46.148Z,7.8
2018-09-13T10:28:48.069Z,7.8
2018-09-13T10:29:50.593Z,7.8
2018-09-13T10:30:52.226Z,7.8
2018-09-13T10:31:53.798Z,7.8
2018-09-13T10:32:55.382Z,7.8
2018-09-13T10:33:56.939Z,7.8
2018-09-13T10:34:58.353Z,7.8
2018-09-13T10:35:59.760Z,7.8
2018-09-13T10:37:01.349Z,7.8
2018-09-13T10:38:02.780Z,7.8
2018-09-13T10:39:04.408Z,7.8
2018-09-13T10:40:05.985Z,7.8
2018-09-13T10:41:07.541Z,7.8
2018-09-13T10:42:09.097Z,7.8
2018-09-13T10:43:10.874Z,7.8
2018-09-13T10:44:12.448Z,7.8
2018-09-13T10:45:14.008Z,7.8
2018-09-13T10:46:15.772Z,7.8
2018-09-13T10:47:17.711Z,7.8
2018-09-13T10:48:19.271Z,7.8
2018-09-13T10:49:21.470Z,7.8
2018-09-13T10:50:23.298Z,7.8
2018-09-13T10:51:24.877Z,7.8
2018-09-13T10:52:27.346Z,7.8
2018-09-13T10:53:28.737Z,7.7
2018-09-13T10:54:30.796Z,7.7
2018-09-13T10:55:33.136Z,7.6
2018-09-13T10:56:34.722Z,7.6
2018-09-13T10:57:36.349Z,7.6
2018-09-13T10:58:37.949Z,7.7
2018-09-13T10:59:39.508Z,7.8
2018-09-13T11:00:41.071Z,7.9
2018-09-13T11:01:42.475Z,7.9
2018-09-13T11:02:44.047Z,7.9
2018-09-13T11:03:45.440Z,7.8
2018-09-13T11:04:46.882Z,7.8
2018-09-13T11:05:48.837Z,7.7
2018-09-13T11:06:50.409Z,7.6
2018-09-13T11:07:51.808Z,7.5
2018-09-13T11:08:53.193Z,7.3
2018-09-13T11:09:54.775Z,7.2
2018-09-13T11:10:58.398Z,7.2
2018-09-13T11:12:00.131Z,7.2
2018-09-13T11:13:01.703Z,7.2
2018-09-13T11:14:03.278Z,7.2
2018-09-13T11:15:04.853Z,7.2
2018-09-13T11:16:06.269Z,7.2
2018-09-13T11:17:07.669Z,7.2
2018-09-13T11:18:09.230Z,7.2
2018-09-13T11:19:10.827Z,7.2
2018-09-13T11:20:12.245Z,7.2
2018-09-13T11:21:13.833Z,7.2
2018-09-13T11:22:15.448Z,7.2
2018-09-13T11:23:17.018Z,7.2
2018-09-13T11:24:18.451Z,7.2
2018-09-13T11:25:19.882Z,7.2
2018-09-13T11:26:21.465Z,7.2
2018-09-13T11:27:23.042Z,7.2
2018-09-13T11:28:24.595Z,7.2
2018-09-13T11:29:26.192Z,7.2
2018-09-13T11:30:28.043Z,7.2
2018-09-13T11:31:29.671Z,7.2
2018-09-13T11:32:31.250Z,7.2
2018-09-13T11:33:32.842Z,7.2
2018-09-13T11:34:34.440Z,7.2
2018-09-13T11:35:35.985Z,7.2
2018-09-13T11:36:37.550Z,7.2
2018-09-13T11:37:39.136Z,7.2
2018-09-13T11:38:40.513Z,7.2
2018-09-13T11:39:47.039Z,7.3
2018-09-13T11:40:51.164Z,7.3
2018-09-13T11:41:52.909Z,7.3
2018-09-13T11:42:54.470Z,7.3
2018-09-13T11:43:56.069Z,7.3
2018-09-13T11:44:57.320Z,7.3
2018-09-13T11:45:58.917Z,7.3
2018-09-13T11:47:00.527Z,7.3
2018-09-13T11:48:02.405Z,7.4
2018-09-13T11:49:04.017Z,7.4
2018-09-13T11:50:05.434Z,7.4
2018-09-13T11:51:07.016Z,7.4
2018-09-13T11:52:08.567Z,7.4
2018-09-13T11:53:10.136Z,7.5
2018-09-13T11:54:11.704Z,7.5
2018-09-13T11:55:13.298Z,7.5
2018-09-13T11:56:14.870Z,7.6
2018-09-13T11:57:16.428Z,7.6
2018-09-13T11:58:17.867Z,7.7
2018-09-13T11:59:19.451Z,7.7
2018-09-13T12:00:21.042Z,7.7
2018-09-13T12:01:22.755Z,7.8
2018-09-13T12:02:23.995Z,7.8
2018-09-13T12:03:25.559Z,7.8
2018-09-13T12:04:27.131Z,7.8
2018-09-13T12:05:28.724Z,7.8
2018-09-13T12:06:30.309Z,7.8
2018-09-13T12:07:31.724Z,7.8
2018-09-13T12:08:33.309Z,7.8
2018-09-13T12:09:35.036Z,7.8
2018-09-13T12:10:36.674Z,7.8
2018-09-13T12:11:38.269Z,7.8
2018-09-13T12:12:39.878Z,7.8
2018-09-13T12:13:41.467Z,7.8
2018-09-13T12:14:43.037Z,7.8
2018-09-13T12:15:44.626Z,7.8
2018-09-13T12:16:46.200Z,7.8
2018-09-13T12:17:48.151Z,7.9
2018-09-13T12:18:49.592Z,7.9
2018-09-13T12:19:51.168Z,7.9
2018-09-13T12:20:52.771Z,7.8
2018-09-13T12:21:54.364Z,7.8
2018-09-13T12:22:55.973Z,7.8
2018-09-13T12:23:57.558Z,7.8
2018-09-13T12:24:59.156Z,7.8
2018-09-13T12:26:00.725Z,7.8
2018-09-13T12:27:02.304Z,7.9
2018-09-13T12:28:03.883Z,7.8
2018-09-13T12:29:05.465Z,7.8
2018-09-13T12:30:07.044Z,7.8
2018-09-13T12:31:08.629Z,7.8
2018-09-13T12:32:10.227Z,7.8
2018-09-13T12:33:11.664Z,7.8
2018-09-13T12:34:13.324Z,7.8
2018-09-13T12:35:14.881Z,7.8
2018-09-13T12:36:16.461Z,7.8
2018-09-13T12:37:18.063Z,7.8
2018-09-13T12:38:19.496Z,7.8
2018-09-13T12:39:21.112Z,7.8
2018-09-13T12:40:22.696Z,7.8
2018-09-13T12:41:24.305Z,7.8
2018-09-13T12:42:25.897Z,7.8
2018-09-13T12:43:27.322Z,7.8
2018-09-13T12:44:28.888Z,7.7
2018-09-13T12:45:30.459Z,7.7
2018-09-13T12:46:32.028Z,7.6
2018-09-13T12:47:33.624Z,7.6
2018-09-13T12:48:35.220Z,7.5
2018-09-13T12:49:36.656Z,7.4
2018-09-13T12:50:38.220Z,7.3
2018-09-13T12:51:39.647Z,7.2
2018-09-13T12:52:41.229Z,7.2
2018-09-13T12:53:42.797Z,7.2
2018-09-13T12:54:44.373Z,7.2
2018-09-13T12:55:45.950Z,7.2
2018-09-13T12:56:48.728Z,7.2
2018-09-13T12:57:49.957Z,7.2
2018-09-13T12:58:51.752Z,7.2
2018-09-13T12:59:53.321Z,7.2
2018-09-13T13:00:54.878Z,7.2
2018-09-13T13:01:56.454Z,7.2
2018-09-13T13:02:58.036Z,7.2
2018-09-13T13:03:59.603Z,7.2
2018-09-13T13:05:01.055Z,7.2
2018-09-13T13:06:02.632Z,7.2
2018-09-13T13:07:04.230Z,7.2
2018-09-13T13:08:05.805Z,7.2
2018-09-13T13:09:07.410Z,7.2
2018-09-13T13:10:09.024Z,7.2
2018-09-13T13:11:10.625Z,7.2
2018-09-13T13:12:12.200Z,7.2
2018-09-13T13:13:13.778Z,7.3
2018-09-13T13:14:15.370Z,7.5
2018-09-13T13:15:16.961Z,7.6
2018-09-13T13:16:18.539Z,7.8
2018-09-13T13:17:19.940Z,7.8
2018-09-13T13:18:21.499Z,7.9
2018-09-13T13:19:23.571Z,7.8
2018-09-13T13:20:25.161Z,7.8
2018-09-13T13:21:26.567Z,7.8
2018-09-13T13:22:28.148Z,7.8
2018-09-13T13:23:29.730Z,7.8
2018-09-13T13:24:31.265Z,7.8
2018-09-13T13:25:32.868Z,7.8
2018-09-13T13:26:34.432Z,7.8
2018-09-13T13:27:36.862Z,7.7
2018-09-13T13:28:38.478Z,7.7
2018-09-13T13:29:40.049Z,7.7
2018-09-13T13:30:41.641Z,7.7
2018-09-13T13:31:43.226Z,7.7
2018-09-13T13:32:44.817Z,7.7
2018-09-13T13:33:46.560Z,7.7
2018-09-13T13:34:48.205Z,7.7
2018-09-13T13:35:49.810Z,7.7
2018-09-13T13:36:51.405Z,7.7
2018-09-13T13:37:52.985Z,7.7
2018-09-13T13:38:54.557Z,7.7
2018-09-13T13:39:56.148Z,7.7
2018-09-13T13:40:57.746Z,7.7
2018-09-13T13:41:59.329Z,7.7
2018-09-13T13:43:00.888Z,7.7
2018-09-13T13:44:03.092Z,7.7
2018-09-13T13:45:04.568Z,7.7
2018-09-13T13:46:05.980Z,7.8
2018-09-13T13:47:07.211Z,7.8
2018-09-13T13:48:08.453Z,7.8
2018-09-13T13:49:10.039Z,7.8
2018-09-13T13:50:11.458Z,7.8
2018-09-13T13:51:13.058Z,7.8
2018-09-13T13:52:14.625Z,7.8
2018-09-13T13:53:16.206Z,7.8
2018-09-13T13:54:17.764Z,7.8
2018-09-13T13:55:19.338Z,7.8
2018-09-13T13:56:20.923Z,7.8
2018-09-13T13:57:22.506Z,7.8
2018-09-13T13:58:24.100Z,7.8
2018-09-13T13:59:25.688Z,7.8
2018-09-13T14:00:27.264Z,7.8
2018-09-13T14:01:28.849Z,7.8
2018-09-13T14:02:30.434Z,7.8
2018-09-13T14:03:32.009Z,7.8
2018-09-13T14:04:33.598Z,7.8
2018-09-13T14:05:35.013Z,7.9
2018-09-13T14:06:36.428Z,7.9
2018-09-13T14:07:38.012Z,7.9
2018-09-13T14:08:39.626Z,7.9